THY5HR LTFM-LTBJ
Flight info
| Callsign | THY5HR |
|---|---|
| Flight time | 0h 48m |
| Altitude | 29000 |
| Route | IVGUS UM19 OVZOK |
| Aircraft | A320/M-SDE3FGHIRWY/LB1 |
Departure
| Time | 2026-05-05 08:08 |
|---|---|
| Airport | İstanbul Airport (LTFM) |
Arrival
| Time | 2026-05-05 08:56 |
|---|---|
| Airport | Adnan Menderes International Airport (LTBJ) |
| Time | Latitude | Longitude | Altitude | Speed | Heading |
|---|---|---|---|---|---|
| 2026-05-05 07:26 | 41.26062 | 28.74913 | 330 ft | 0 kts | 251° |
| 2026-05-05 07:57 | 41.26067 | 28.74933 | 330 ft | 4 kts | 253° |
| 2026-05-05 07:57 | 41.26075 | 28.74967 | 332 ft | 4 kts | 257° |
| 2026-05-05 07:58 | 41.26079 | 28.75003 | 331 ft | 4 kts | 268° |
| 2026-05-05 07:58 | 41.26077 | 28.75036 | 331 ft | 4 kts | 302° |
| 2026-05-05 07:58 | 41.26066 | 28.75050 | 330 ft | 1 kts | 341° |
| 2026-05-05 07:58 | 41.26064 | 28.75051 | 330 ft | 0 kts | 341° |
| 2026-05-05 08:01 | 41.26066 | 28.75050 | 331 ft | 2 kts | 341° |
| 2026-05-05 08:02 | 41.26086 | 28.75041 | 334 ft | 4 kts | 341° |
| 2026-05-05 08:02 | 41.26125 | 28.75023 | 332 ft | 7 kts | 341° |
| 2026-05-05 08:02 | 41.26135 | 28.75018 | 332 ft | 3 kts | 341° |
| 2026-05-05 08:02 | 41.26163 | 28.75006 | 332 ft | 6 kts | 341° |
| 2026-05-05 08:03 | 41.26210 | 28.74997 | 330 ft | 8 kts | 10° |
| 2026-05-05 08:03 | 41.26242 | 28.75061 | 333 ft | 10 kts | 85° |
| 2026-05-05 08:03 | 41.26244 | 28.75126 | 334 ft | 1 kts | 89° |
| 2026-05-05 08:03 | 41.26244 | 28.75143 | 334 ft | 3 kts | 89° |
| 2026-05-05 08:04 | 41.26244 | 28.75176 | 334 ft | 0 kts | 89° |
| 2026-05-05 08:04 | 41.26244 | 28.75188 | 334 ft | 3 kts | 89° |
| 2026-05-05 08:04 | 41.26245 | 28.75223 | 334 ft | 5 kts | 89° |
| 2026-05-05 08:04 | 41.26246 | 28.75279 | 334 ft | 7 kts | 89° |
| 2026-05-05 08:05 | 41.26247 | 28.75357 | 334 ft | 10 kts | 89° |
| 2026-05-05 08:05 | 41.26247 | 28.75407 | 334 ft | 1 kts | 89° |
| 2026-05-05 08:05 | 41.26248 | 28.75423 | 334 ft | 3 kts | 89° |
| 2026-05-05 08:05 | 41.26248 | 28.75461 | 334 ft | 5 kts | 89° |
| 2026-05-05 08:06 | 41.26249 | 28.75521 | 334 ft | 8 kts | 89° |
| 2026-05-05 08:06 | 41.26250 | 28.75603 | 334 ft | 8 kts | 89° |
| 2026-05-05 08:06 | 41.26269 | 28.75664 | 333 ft | 8 kts | 28° |
| 2026-05-05 08:06 | 41.26302 | 28.75668 | 331 ft | 0 kts | 359° |
| 2026-05-05 08:07 | 41.26304 | 28.75668 | 331 ft | 0 kts | 359° |
| 2026-05-05 08:07 | 41.26349 | 28.75667 | 332 ft | 31 kts | 359° |
| 2026-05-05 08:07 | 41.26808 | 28.75658 | 332 ft | 99 kts | 359° |
| 2026-05-05 08:08 | 41.27681 | 28.75638 | 354 ft | 149 kts | 358° |
| 2026-05-05 08:08 | 41.28740 | 28.75619 | 920 ft | 152 kts | 359° |
| 2026-05-05 08:08 | 41.29803 | 28.75724 | 1565 ft | 160 kts | 20° |
| 2026-05-05 08:08 | 41.30792 | 28.76584 | 1966 ft | 180 kts | 34° |
| 2026-05-05 08:09 | 41.31888 | 28.77542 | 2384 ft | 199 kts | 30° |
| 2026-05-05 08:09 | 41.33129 | 28.78537 | 2909 ft | 217 kts | 29° |
| 2026-05-05 08:09 | 41.34482 | 28.79591 | 3523 ft | 234 kts | 28° |
| 2026-05-05 08:09 | 41.35938 | 28.80714 | 4256 ft | 247 kts | 28° |
| 2026-05-05 08:10 | 41.37395 | 28.81946 | 5193 ft | 251 kts | 40° |
| 2026-05-05 08:10 | 41.38302 | 28.83941 | 6163 ft | 261 kts | 74° |
| 2026-05-05 08:10 | 41.38456 | 28.86387 | 7025 ft | 269 kts | 85° |
| 2026-05-05 08:10 | 41.38479 | 28.88908 | 7860 ft | 275 kts | 87° |
| 2026-05-05 08:11 | 41.38088 | 28.91430 | 8709 ft | 286 kts | 112° |
| 2026-05-05 08:11 | 41.36839 | 28.93529 | 9549 ft | 298 kts | 140° |
| 2026-05-05 08:11 | 41.34937 | 28.94676 | 10273 ft | 308 kts | 169° |
| 2026-05-05 08:11 | 41.32748 | 28.94864 | 10729 ft | 324 kts | 178° |
| 2026-05-05 08:12 | 41.30434 | 28.94904 | 11109 ft | 341 kts | 179° |
| 2026-05-05 08:12 | 41.28036 | 28.94903 | 11459 ft | 357 kts | 182° |
| 2026-05-05 08:12 | 41.25549 | 28.94423 | 12020 ft | 364 kts | 195° |
| 2026-05-05 08:12 | 41.23167 | 28.93251 | 12726 ft | 367 kts | 207° |
| 2026-05-05 08:13 | 41.20913 | 28.91636 | 13427 ft | 370 kts | 210° |
| 2026-05-05 08:13 | 41.18632 | 28.89992 | 14092 ft | 374 kts | 209° |
| 2026-05-05 08:13 | 41.16329 | 28.88341 | 14715 ft | 378 kts | 209° |
| 2026-05-05 08:13 | 41.14008 | 28.86682 | 15332 ft | 381 kts | 209° |
| 2026-05-05 08:14 | 41.11662 | 28.85004 | 15939 ft | 384 kts | 210° |
| 2026-05-05 08:14 | 41.09300 | 28.83310 | 16530 ft | 388 kts | 210° |
| 2026-05-05 08:14 | 41.06961 | 28.81510 | 17118 ft | 390 kts | 217° |
| 2026-05-05 08:14 | 41.04783 | 28.79342 | 17724 ft | 393 kts | 219° |
| 2026-05-05 08:15 | 41.02599 | 28.77134 | 18313 ft | 397 kts | 219° |
| 2026-05-05 08:15 | 41.00392 | 28.74909 | 18852 ft | 401 kts | 219° |
| 2026-05-05 08:15 | 40.98165 | 28.72676 | 19444 ft | 403 kts | 220° |
| 2026-05-05 08:15 | 40.95925 | 28.70438 | 20069 ft | 404 kts | 220° |
| 2026-05-05 08:16 | 40.93795 | 28.68031 | 20689 ft | 402 kts | 229° |
| 2026-05-05 08:16 | 40.92073 | 28.65214 | 21288 ft | 398 kts | 240° |
| 2026-05-05 08:16 | 40.90769 | 28.61959 | 21891 ft | 394 kts | 251° |
| 2026-05-05 08:16 | 40.89977 | 28.58558 | 22468 ft | 391 kts | 262° |
| 2026-05-05 08:17 | 40.89472 | 28.55033 | 23040 ft | 391 kts | 262° |
| 2026-05-05 08:17 | 40.88961 | 28.51495 | 23603 ft | 393 kts | 262° |
| 2026-05-05 08:17 | 40.88441 | 28.47947 | 24084 ft | 394 kts | 262° |
| 2026-05-05 08:17 | 40.87913 | 28.44389 | 24507 ft | 396 kts | 262° |
| 2026-05-05 08:18 | 40.87381 | 28.40814 | 24912 ft | 398 kts | 262° |
| 2026-05-05 08:18 | 40.86846 | 28.37219 | 25313 ft | 400 kts | 262° |
| 2026-05-05 08:18 | 40.86306 | 28.33602 | 25704 ft | 402 kts | 262° |
| 2026-05-05 08:18 | 40.85761 | 28.29966 | 26091 ft | 404 kts | 261° |
| 2026-05-05 08:19 | 40.85213 | 28.26316 | 26467 ft | 406 kts | 261° |
| 2026-05-05 08:19 | 40.84660 | 28.22646 | 26839 ft | 408 kts | 261° |
| 2026-05-05 08:19 | 40.84104 | 28.18956 | 27209 ft | 411 kts | 261° |
| 2026-05-05 08:19 | 40.83548 | 28.15252 | 27577 ft | 413 kts | 261° |
| 2026-05-05 08:20 | 40.82988 | 28.11521 | 27948 ft | 415 kts | 261° |
| 2026-05-05 08:20 | 40.82426 | 28.07778 | 28310 ft | 417 kts | 261° |
| 2026-05-05 08:20 | 40.81860 | 28.04015 | 28672 ft | 419 kts | 261° |
| 2026-05-05 08:20 | 40.81295 | 28.00286 | 29000 ft | 421 kts | 261° |
| 2026-05-05 08:21 | 40.80155 | 27.92872 | 29086 ft | 405 kts | 261° |
| 2026-05-05 08:21 | 40.79436 | 27.85543 | 29088 ft | 402 kts | 272° |
| 2026-05-05 08:22 | 40.78744 | 27.78244 | 29084 ft | 406 kts | 252° |
| 2026-05-05 08:22 | 40.77485 | 27.74892 | 29082 ft | 411 kts | 239° |
| 2026-05-05 08:22 | 40.75663 | 27.71974 | 29086 ft | 416 kts | 226° |
| 2026-05-05 08:23 | 40.73353 | 27.69643 | 29084 ft | 422 kts | 213° |
| 2026-05-05 08:23 | 40.70780 | 27.67768 | 29079 ft | 423 kts | 212° |
| 2026-05-05 08:23 | 40.65603 | 27.64052 | 29085 ft | 424 kts | 212° |
| 2026-05-05 08:24 | 40.60408 | 27.60379 | 29077 ft | 426 kts | 208° |
| 2026-05-05 08:24 | 40.54654 | 27.58367 | 29076 ft | 434 kts | 187° |
| 2026-05-05 08:25 | 40.48579 | 27.58789 | 29080 ft | 439 kts | 177° |
| 2026-05-05 08:25 | 40.42489 | 27.59557 | 29083 ft | 439 kts | 178° |
| 2026-05-05 08:26 | 40.36388 | 27.60264 | 29083 ft | 438 kts | 181° |
| 2026-05-05 08:26 | 40.30376 | 27.59518 | 29074 ft | 434 kts | 192° |
| 2026-05-05 08:27 | 40.24391 | 27.58352 | 29077 ft | 435 kts | 192° |
| 2026-05-05 08:27 | 40.18438 | 27.57229 | 29082 ft | 435 kts | 192° |
| 2026-05-05 08:28 | 40.12453 | 27.56089 | 29082 ft | 435 kts | 192° |
| 2026-05-05 08:28 | 40.06457 | 27.54927 | 29081 ft | 435 kts | 192° |
| 2026-05-05 08:29 | 40.00467 | 27.53771 | 29081 ft | 435 kts | 192° |
| 2026-05-05 08:30 | 39.91471 | 27.52055 | 29085 ft | 436 kts | 191° |
| 2026-05-05 08:30 | 39.85468 | 27.50916 | 29083 ft | 436 kts | 192° |
| 2026-05-05 08:31 | 39.79469 | 27.49771 | 29079 ft | 436 kts | 191° |
| 2026-05-05 08:31 | 39.74472 | 27.48824 | 29080 ft | 436 kts | 191° |
| 2026-05-05 08:32 | 39.67487 | 27.47509 | 29084 ft | 436 kts | 191° |
| 2026-05-05 08:32 | 39.61474 | 27.46375 | 29077 ft | 437 kts | 191° |
| 2026-05-05 08:33 | 39.56436 | 27.45429 | 29076 ft | 437 kts | 191° |
| 2026-05-05 08:33 | 39.50423 | 27.44310 | 29080 ft | 437 kts | 191° |
| 2026-05-05 08:34 | 39.44407 | 27.43190 | 29081 ft | 437 kts | 191° |
| 2026-05-05 08:34 | 39.38387 | 27.42068 | 29091 ft | 437 kts | 193° |
| 2026-05-05 08:35 | 39.32476 | 27.40010 | 29083 ft | 447 kts | 199° |
| 2026-05-05 08:35 | 39.29506 | 27.38888 | 28288 ft | 442 kts | 199° |
| 2026-05-05 08:35 | 39.26562 | 27.37787 | 27091 ft | 438 kts | 199° |
| 2026-05-05 08:35 | 39.23682 | 27.36720 | 26510 ft | 421 kts | 199° |
| 2026-05-05 08:36 | 39.20919 | 27.35701 | 26038 ft | 404 kts | 199° |
| 2026-05-05 08:36 | 39.18260 | 27.34719 | 25569 ft | 391 kts | 199° |
| 2026-05-05 08:36 | 39.15683 | 27.33762 | 25121 ft | 378 kts | 199° |
| 2026-05-05 08:36 | 39.13170 | 27.32824 | 24694 ft | 376 kts | 199° |
| 2026-05-05 08:37 | 39.10662 | 27.31885 | 24264 ft | 375 kts | 199° |
| 2026-05-05 08:37 | 39.08165 | 27.30950 | 23838 ft | 373 kts | 199° |
| 2026-05-05 08:37 | 39.05674 | 27.30018 | 23376 ft | 372 kts | 199° |
| 2026-05-05 08:37 | 39.03200 | 27.29090 | 22933 ft | 369 kts | 199° |
| 2026-05-05 08:38 | 39.00744 | 27.28169 | 22507 ft | 367 kts | 199° |
| 2026-05-05 08:38 | 38.98293 | 27.27254 | 22070 ft | 366 kts | 199° |
| 2026-05-05 08:38 | 38.95854 | 27.26351 | 21624 ft | 365 kts | 199° |
| 2026-05-05 08:38 | 38.93418 | 27.25455 | 21180 ft | 363 kts | 199° |
| 2026-05-05 08:39 | 38.90990 | 27.24561 | 20717 ft | 362 kts | 199° |
| 2026-05-05 08:39 | 38.88561 | 27.23707 | 20257 ft | 363 kts | 195° |
| 2026-05-05 08:39 | 38.86054 | 27.23285 | 19806 ft | 365 kts | 184° |
| 2026-05-05 08:39 | 38.83517 | 27.23286 | 19347 ft | 365 kts | 182° |
| 2026-05-05 08:40 | 38.80971 | 27.23317 | 18877 ft | 366 kts | 181° |
| 2026-05-05 08:40 | 38.78428 | 27.23345 | 18410 ft | 366 kts | 182° |
| 2026-05-05 08:40 | 38.75878 | 27.23371 | 17897 ft | 366 kts | 181° |
| 2026-05-05 08:40 | 38.73337 | 27.23393 | 17425 ft | 365 kts | 181° |
| 2026-05-05 08:41 | 38.70822 | 27.23415 | 17183 ft | 357 kts | 181° |
| 2026-05-05 08:41 | 38.68371 | 27.23375 | 16909 ft | 348 kts | 187° |
| 2026-05-05 08:41 | 38.66050 | 27.22826 | 16642 ft | 340 kts | 199° |
| 2026-05-05 08:41 | 38.63774 | 27.22010 | 16218 ft | 340 kts | 198° |
| 2026-05-05 08:42 | 38.61489 | 27.21195 | 15741 ft | 342 kts | 198° |
| 2026-05-05 08:42 | 38.59197 | 27.20381 | 15377 ft | 340 kts | 198° |
| 2026-05-05 08:42 | 38.56905 | 27.19592 | 14919 ft | 342 kts | 193° |
| 2026-05-05 08:42 | 38.54558 | 27.19285 | 14627 ft | 338 kts | 179° |
| 2026-05-05 08:43 | 38.52240 | 27.19636 | 14023 ft | 334 kts | 166° |
| 2026-05-05 08:43 | 38.49984 | 27.20325 | 13327 ft | 331 kts | 166° |
| 2026-05-05 08:43 | 38.47765 | 27.21001 | 12857 ft | 328 kts | 166° |
| 2026-05-05 08:43 | 38.45538 | 27.21677 | 12387 ft | 330 kts | 166° |
| 2026-05-05 08:44 | 38.43303 | 27.22351 | 11948 ft | 330 kts | 165° |
| 2026-05-05 08:44 | 38.41076 | 27.23022 | 11582 ft | 328 kts | 165° |
| 2026-05-05 08:44 | 38.38855 | 27.23692 | 11124 ft | 324 kts | 165° |
| 2026-05-05 08:44 | 38.36673 | 27.24347 | 10571 ft | 320 kts | 165° |
| 2026-05-05 08:45 | 38.34524 | 27.24991 | 10117 ft | 316 kts | 165° |
| 2026-05-05 08:45 | 38.32432 | 27.25617 | 9852 ft | 302 kts | 165° |
| 2026-05-05 08:45 | 38.30417 | 27.26219 | 9459 ft | 293 kts | 165° |
| 2026-05-05 08:45 | 38.28458 | 27.26806 | 9325 ft | 291 kts | 165° |
| 2026-05-05 08:46 | 38.26486 | 27.27396 | 9044 ft | 291 kts | 164° |
| 2026-05-05 08:46 | 38.24521 | 27.27983 | 8684 ft | 290 kts | 164° |
| 2026-05-05 08:46 | 38.22555 | 27.28571 | 8313 ft | 291 kts | 164° |
| 2026-05-05 08:46 | 38.20578 | 27.29161 | 7966 ft | 291 kts | 164° |
| 2026-05-05 08:47 | 38.18611 | 27.29750 | 7626 ft | 292 kts | 164° |
| 2026-05-05 08:47 | 38.16647 | 27.30336 | 7394 ft | 288 kts | 164° |
| 2026-05-05 08:47 | 38.14710 | 27.30911 | 6993 ft | 284 kts | 164° |
| 2026-05-05 08:47 | 38.12783 | 27.31487 | 6515 ft | 284 kts | 164° |
| 2026-05-05 08:48 | 38.10875 | 27.32058 | 6094 ft | 279 kts | 163° |
| 2026-05-05 08:48 | 38.09027 | 27.32608 | 5807 ft | 268 kts | 164° |
| 2026-05-05 08:48 | 38.07227 | 27.33141 | 5404 ft | 263 kts | 163° |
| 2026-05-05 08:48 | 38.05444 | 27.33507 | 5041 ft | 258 kts | 180° |
| 2026-05-05 08:49 | 38.03723 | 27.33024 | 4697 ft | 249 kts | 207° |
| 2026-05-05 08:49 | 38.02376 | 27.31766 | 4485 ft | 234 kts | 233° |
| 2026-05-05 08:49 | 38.01578 | 27.30076 | 4365 ft | 215 kts | 255° |
| 2026-05-05 08:49 | 38.01319 | 27.28287 | 4162 ft | 202 kts | 275° |
| 2026-05-05 08:50 | 38.01535 | 27.26601 | 4044 ft | 186 kts | 295° |
| 2026-05-05 08:50 | 38.02150 | 27.25118 | 4039 ft | 193 kts | 312° |
| 2026-05-05 08:50 | 38.03104 | 27.23954 | 4036 ft | 189 kts | 329° |
| 2026-05-05 08:50 | 38.04272 | 27.23236 | 4033 ft | 187 kts | 346° |
| 2026-05-05 08:51 | 38.05539 | 27.22855 | 4036 ft | 186 kts | 348° |
| 2026-05-05 08:51 | 38.06799 | 27.22482 | 4036 ft | 186 kts | 348° |
| 2026-05-05 08:51 | 38.08064 | 27.22102 | 4026 ft | 187 kts | 349° |
| 2026-05-05 08:51 | 38.09330 | 27.21721 | 3920 ft | 187 kts | 348° |
| 2026-05-05 08:52 | 38.10597 | 27.21339 | 3675 ft | 187 kts | 347° |
| 2026-05-05 08:52 | 38.11849 | 27.20960 | 3600 ft | 188 kts | 348° |
| 2026-05-05 08:52 | 38.13137 | 27.20558 | 3431 ft | 187 kts | 347° |
| 2026-05-05 08:52 | 38.14376 | 27.20169 | 3127 ft | 180 kts | 347° |
| 2026-05-05 08:53 | 38.15562 | 27.19808 | 2865 ft | 175 kts | 347° |
| 2026-05-05 08:53 | 38.16749 | 27.19450 | 2619 ft | 176 kts | 348° |
| 2026-05-05 08:53 | 38.17914 | 27.19101 | 2383 ft | 165 kts | 348° |
| 2026-05-05 08:53 | 38.19024 | 27.18767 | 2156 ft | 159 kts | 348° |
| 2026-05-05 08:54 | 38.20020 | 27.18468 | 1978 ft | 136 kts | 347° |
| 2026-05-05 08:54 | 38.20917 | 27.18198 | 1787 ft | 132 kts | 347° |
| 2026-05-05 08:54 | 38.21813 | 27.17930 | 1607 ft | 132 kts | 347° |
| 2026-05-05 08:54 | 38.22704 | 27.17662 | 1419 ft | 131 kts | 348° |
| 2026-05-05 08:55 | 38.23594 | 27.17395 | 1253 ft | 131 kts | 346° |
| 2026-05-05 08:55 | 38.24479 | 27.17129 | 1079 ft | 131 kts | 347° |
| 2026-05-05 08:55 | 38.25360 | 27.16859 | 904 ft | 130 kts | 348° |
| 2026-05-05 08:55 | 38.26236 | 27.16594 | 732 ft | 129 kts | 349° |
| 2026-05-05 08:56 | 38.27105 | 27.16344 | 578 ft | 129 kts | 346° |
| 2026-05-05 08:56 | 38.27977 | 27.16078 | 424 ft | 128 kts | 347° |
| 2026-05-05 08:56 | 38.28710 | 27.15859 | 416 ft | 71 kts | 346° |
| 2026-05-05 08:56 | 38.29000 | 27.15769 | 411 ft | 27 kts | 346° |
| 2026-05-05 08:57 | 38.29180 | 27.15715 | 412 ft | 26 kts | 346° |
| 2026-05-05 08:57 | 38.29350 | 27.15660 | 416 ft | 25 kts | 345° |
| 2026-05-05 08:57 | 38.29419 | 27.15595 | 418 ft | 8 kts | 265° |
| 2026-05-05 08:57 | 38.29415 | 27.15547 | 415 ft | 0 kts | 258° |
| 2026-05-05 08:58 | 38.29414 | 27.15539 | 417 ft | 0 kts | 254° |
| 2026-05-05 08:58 | 38.29412 | 27.15531 | 420 ft | 2 kts | 254° |
| 2026-05-05 08:58 | 38.29407 | 27.15509 | 420 ft | 3 kts | 256° |
| 2026-05-05 08:58 | 38.29400 | 27.15474 | 413 ft | 5 kts | 256° |
| 2026-05-05 08:59 | 38.29391 | 27.15422 | 412 ft | 7 kts | 257° |
| 2026-05-05 08:59 | 38.29377 | 27.15346 | 414 ft | 13 kts | 257° |
| 2026-05-05 08:59 | 38.29354 | 27.15222 | 411 ft | 0 kts | 257° |
| 2026-05-05 08:59 | 38.29352 | 27.15213 | 411 ft | 2 kts | 257° |
| 2026-05-05 09:00 | 38.29347 | 27.15185 | 408 ft | 4 kts | 257° |
| 2026-05-05 09:00 | 38.29349 | 27.15143 | 411 ft | 4 kts | 305° |
| 2026-05-05 09:00 | 38.29355 | 27.15136 | 409 ft | 2 kts | 313° |
| 2026-05-05 09:00 | 38.29356 | 27.15134 | 409 ft | 0 kts | 313° |
| 2026-05-05 09:01 | 38.29362 | 27.15129 | 411 ft | 0 kts | 326° |
| 2026-05-05 09:01 | 38.29364 | 27.15127 | 411 ft | 1 kts | 326° |
| 2026-05-05 09:01 | 38.29369 | 27.15115 | 411 ft | 2 kts | 292° |
| 2026-05-05 09:02 | 38.29368 | 27.15101 | 411 ft | 1 kts | 263° |
| 2026-05-05 09:02 | 38.29363 | 27.15084 | 411 ft | 2 kts | 249° |
| 2026-05-05 09:02 | 38.29361 | 27.15079 | 409 ft | 2 kts | 250° |
| 2026-05-05 09:02 | 38.29359 | 27.15067 | 408 ft | 1 kts | 256° |
| 2026-05-05 09:03 | 38.29357 | 27.15056 | 410 ft | 1 kts | 254° |
| 2026-05-05 09:03 | 38.29354 | 27.15040 | 411 ft | 0 kts | 257° |
| 2026-05-05 09:03 | 38.29353 | 27.15035 | 411 ft | 0 kts | 256° |